LFPG

Charles de Gaulle International Airport

Paris, France
METAR LFPG 130200Z 12006KT 6000 SCT008 M00/M01 Q1017 NOSIG
Observed Flight Rules
Dec-13 @ 02:00 UTC (25 minutes ago) Marginal Visual Flight Rules
Wind Visibility Clouds
120° at 6 knots 6,003 meters
  • Scattered at 800' AGL
Temperatures Readings
Current 0°C / 32°F
Dewpoint -1°C / 30°F
Humidity 93%
Altimeter 30.03" Hg
Pressure 1017 hPa
Elevation 109
METAR LFPG 130200Z 12006KT 6000 SCT008 M00/M01 Q1017 NOSIG
Observed Flight Rules
Dec-13 @ 02:00 UTC
(25 minutes ago)
MVFR
Wind Visibility
120° at 6 knots 6,003 meters
Clouds
  • Scattered at 800' AGL
Temperature Dewpoint
0°C / 32°F -1°C / 30°F
Humidity Altimeter Pressure
93% 30.03" Hg 1017 hPa